Terminal Aerodrome Forecast
Issued by NWS

Home | Current Version | Previous Version | Text Only | Print | Product List | Glossary On
Versions: 1 2 3 4 5 6 7 8 9 10 11 12 13 14 15
651
FTPA31 PHFO 231747
TAFHJR
TAF
PHJR 231747Z 2318/2418 VRB05KT P6SM FEW050 BKN100
     FM232100 16008KT P6SM VCTS BKN030CB BKN045
     FM240100 24012G20KT P6SM VCTS SCT025CB BKN045
     FM241300 28010G16KT P6SM VCSH SCT025 BKN045=

USA.gov is the U.S. government's official web portal to all federal, state and local government web resources and services.